Airfield :
LOGIN :

Register | Disclaimer

   EN    FR    IT 

 










Legend :    VFR   Marginal VFR   IFR   Intensive IFR   Very Intensive IFR
Visi :
Ceiling :
>= 8 km
>= 3000ft
5 to 8 km
1000 to 3000 ft
1500m to 5 km
500 to 1000 ft
800 to 1500m
200 to 500 ft
< 800m
< 200 ft
Symbols :   Thunderstorms  Fog  Heavy snow  Heavy precipitations  Wind > 20 kt
SIGMETs :     Misc.  Thunderstorms  Icing  Turbulence  Mountain Waves  Volcanic Ashes






- Airport Elevation : 505 ft
- IATA code : SXB


LFST - Strasbourg

CURRENT METAR :
  • 121530Z AUTO 11005KT 070V140 CAVOK 29/16 Q1013 TEMPO VRB15G30KT 2000 TSRA SCT050CB BKN080

EXPIRED METARs :
  • 121500Z AUTO 10004KT 060V130 9999 FEW046 BKN150 28/16 Q1013 TEMPO VRB15G30KT 2000 TSRA SCT050CB BKN080
  • 121430Z AUTO 15004KT 090V190 9999 FEW042/// BKN130/// ///TCU 28/16 Q1014 TEMPO VRB15G30KT 2000 TSRA SCT050CB BKN080
  • 121400Z AUTO 13007KT 100V170 9999 -RA VCTS FEW042/// BKN076/// BKN130/// ///CB 27/16 Q1014 TEMPO VRB15G30KT 2000 TSRA
  • 121330Z AUTO 22006KT 9999 ///CB 32/19 Q1014 TEMPO VRB15G30KT 2000 TSRA
  • 121300Z AUTO 22007KT 9999 ///CB 32/19 Q1014 TEMPO VRB15G30KT 2000 TSRA

TAF AMD TAF LFST
Valid from the 12 at 12:00 until the 13 at 12:00 UTC


121248Z 1212/1312 13005KT CAVOK
TEMPO 1212/1220 VRB15G25KT FEW060CB BKN080
PROB40
TEMPO 1213/1220 VRB15G30KT TSRA SCT050CB BKN080
PROB30
TEMPO 1213/1220 2000 TSRA
TEMPO 1221/1312 FEW070CB BKN090
PROB40
TEMPO 1221/1310 SHRA



MET'MAP, your aeronautical weather chart ! - Copyright ORBIFLY December 2007 - Disclaimer

ORBIFLY MET'MAP TEAM :

Programming & Development : Alexandra Zaïnal
Concept & original design : Baudouin d'Aumeries
Assistance for programming : Marc-Olivier Méhu
Technical & hardware support : Manuel Goepfert

Contact : metmap@orbifly.com




SOURCES & CREDITS :

   NOAA